Time;durP1;ratioP1;P1;durP2;ratioP2;P2;SDS_P1;SDS_P2;PMS_P1;PMS_P2;Temp;Humidity;BMP_temperature;BMP_pressure;BME280_temperature;BME280_humidity;BME280_pressure;Samples;Min_cycle;Max_cycle;Signal;HPM_P1;HPM_P2
2023/09/20 00:02:21;;;;;;;0.00;0.00;;;;;;;17.16;100.00;100696.19;5112061;28;20023;-42
2023/09/20 00:04:47;;;;;;;0.00;0.00;;;;;;;17.15;100.00;100693.72;5107307;28;20047;-44
2023/09/20 00:07:13;;;;;;;0.00;0.00;;;;;;;17.10;100.00;100703.38;5094485;28;20435;-43
2023/09/20 00:09:38;;;;;;;0.00;0.00;;;;;;;17.07;100.00;100687.53;5094348;28;20032;-42
2023/09/20 00:12:04;;;;;;;0.00;0.00;;;;;;;17.06;100.00;100690.47;5094218;28;20085;-42
2023/09/20 00:14:29;;;;;;;0.00;0.00;;;;;;;17.11;100.00;100682.47;5093450;28;20382;-43
2023/09/20 00:16:55;;;;;;;0.00;0.00;;;;;;;17.07;100.00;100686.72;5093793;28;20023;-44
2023/09/20 00:19:21;;;;;;;0.00;0.00;;;;;;;17.05;100.00;100686.09;5094305;28;20020;-45
2023/09/20 00:21:46;;;;;;;0.00;0.00;;;;;;;17.02;100.00;100689.28;5101269;28;20540;-42
2023/09/20 00:24:12;;;;;;;0.00;0.00;;;;;;;17.04;100.00;100698.06;5099490;28;20024;-44
2023/09/20 00:26:37;;;;;;;0.00;0.00;;;;;;;17.05;100.00;100683.38;5093777;28;20024;-44
2023/09/20 00:29:05;;;;;;;0.00;0.00;;;;;;;17.01;100.00;100702.06;5093670;28;20034;-44
2023/09/20 00:31:34;;;;;;;0.00;0.00;;;;;;;17.03;100.00;100696.38;5093926;28;20088;-44
2023/09/20 00:34:03;;;;;;;0.00;0.00;;;;;;;17.00;100.00;100703.09;5093741;28;20020;-42
2023/09/20 00:36:28;;;;;;;0.00;0.00;;;;;;;17.13;100.00;100698.56;5093749;28;20084;-42
2023/09/20 00:38:55;;;;;;;0.00;0.00;;;;;;;17.15;100.00;100697.28;5102078;28;20016;-45
2023/09/20 00:41:21;;;;;;;0.00;0.00;;;;;;;17.08;100.00;100696.53;5113552;28;20020;-44
2023/09/20 00:43:46;;;;;;;0.00;0.00;;;;;;;17.04;100.00;100698.88;5113585;27;20107;-41
2023/09/20 00:46:12;;;;;;;0.00;0.00;;;;;;;17.00;100.00;100688.69;5113718;28;20482;-42
2023/09/20 00:48:38;;;;;;;0.00;0.00;;;;;;;16.94;100.00;100686.88;5113321;28;20024;-45
2023/09/20 00:51:05;;;;;;;0.00;0.00;;;;;;;16.89;100.00;100696.53;5113058;28;20041;-42
2023/09/20 00:53:31;;;;;;;0.00;0.00;;;;;;;16.91;100.00;100693.59;5112211;28;20406;-42
2023/09/20 00:55:58;;;;;;;0.00;0.00;;;;;;;16.91;100.00;100679.19;5086825;28;20024;-43
2023/09/20 00:58:23;;;;;;;0.00;0.00;;;;;;;16.96;100.00;100684.78;5093320;28;20035;-43
2023/09/20 01:00:52;;;;;;;0.00;0.00;;;;;;;16.93;100.00;100668.88;5093399;28;20048;-41
2023/09/20 01:03:18;;;;;;;0.00;0.00;;;;;;;17.00;100.00;100683.25;5092245;28;20078;-44
2023/09/20 01:05:47;;;;;;;0.00;0.00;;;;;;;17.07;100.00;100675.84;5093064;28;20533;-43
2023/09/20 01:08:13;;;;;;;0.00;0.00;;;;;;;17.09;100.00;100668.28;5093209;28;20392;-44
2023/09/20 01:10:38;;;;;;;0.00;0.00;;;;;;;17.10;100.00;100661.78;5092978;28;20348;-42
2023/09/20 01:13:05;;;;;;;0.00;0.00;;;;;;;17.10;100.00;100665.31;5093424;28;20540;-43
2023/09/20 01:15:32;;;;;;;0.00;0.00;;;;;;;17.08;100.00;100661.16;5093947;28;20362;-42
2023/09/20 01:17:59;;;;;;;0.00;0.00;;;;;;;17.11;100.00;100656.13;5095406;28;20020;-44
2023/09/20 01:20:28;;;;;;;0.00;0.00;;;;;;;17.14;100.00;100651.25;5113461;28;20031;-42
2023/09/20 01:22:56;;;;;;;0.00;0.00;;;;;;;17.20;100.00;100659.34;5098090;28;20084;-43
2023/09/20 01:25:22;;;;;;;;;;;;;;;17.17;100.00;100659.81;5111906;28;20073;-41
2023/09/20 01:27:49;;;;;;;0.00;0.00;;;;;;;17.17;100.00;100664.41;5110787;28;19918;-42
2023/09/20 01:30:16;;;;;;;0.00;0.00;;;;;;;17.11;100.00;100655.28;5099188;28;20036;-42
2023/09/20 01:32:42;;;;;;;0.00;0.00;;;;;;;17.08;100.00;100655.72;5092064;28;20024;-44
2023/09/20 01:35:08;;;;;;;0.00;0.00;;;;;;;17.04;100.00;100654.53;5096012;28;20040;-43
2023/09/20 01:37:33;;;;;;;0.00;0.00;;;;;;;17.04;100.00;100652.66;5092313;28;20042;-45
2023/09/20 01:39:58;;;;;;;0.00;0.00;;;;;;;17.04;100.00;100654.53;5103318;28;20097;-44
2023/09/20 01:42:24;;;;;;;0.00;0.00;;;;;;;17.15;100.00;100652.94;5112039;28;20460;-42
2023/09/20 01:44:49;;;;;;;0.00;0.00;;;;;;;17.12;100.00;100651.50;5111849;28;20023;-41
2023/09/20 01:47:18;;;;;;;0.00;0.00;;;;;;;17.14;100.00;100654.84;5108130;28;20031;-43
2023/09/20 01:49:44;;;;;;;0.00;0.00;;;;;;;17.15;100.00;100653.75;5092567;28;20031;-42
2023/09/20 01:52:09;;;;;;;0.00;0.00;;;;;;;17.16;100.00;100657.31;5095852;28;20032;-41
2023/09/20 01:54:35;;;;;;;0.00;0.00;;;;;;;17.17;100.00;100648.94;5112372;27;20133;-42
2023/09/20 01:57:00;;;;;;;0.00;0.00;;;;;;;17.13;100.00;100645.00;5107791;28;21373;-43
2023/09/20 01:59:26;;;;;;;0.00;0.00;;;;;;;17.14;100.00;100645.81;5097683;28;20043;-42
2023/09/20 02:01:51;;;;;;;0.00;0.00;;;;;;;17.09;100.00;100636.47;5099899;28;20036;-42
2023/09/20 02:04:17;;;;;;;0.00;0.00;;;;;;;17.12;100.00;100643.34;5106375;28;20042;-41
2023/09/20 02:06:43;;;;;;;0.00;0.00;;;;;;;17.15;100.00;100642.88;5110550;27;20554;-43
2023/09/20 02:09:09;;;;;;;0.00;0.00;;;;;;;17.18;100.00;100633.44;5106881;28;20105;-43
2023/09/20 02:11:34;;;;;;;0.00;0.00;;;;;;;17.18;100.00;100620.66;5091345;28;20077;-42
2023/09/20 02:14:00;;;;;;;0.00;0.00;;;;;;;17.15;100.00;100612.97;5092264;28;20059;-44
2023/09/20 02:16:25;;;;;;;0.00;0.00;;;;;;;17.11;100.00;100592.72;5092122;28;20016;-44
2023/09/20 02:18:52;;;;;;;0.00;0.00;;;;;;;17.10;100.00;100616.38;5100780;28;20462;-41
2023/09/20 02:21:18;;;;;;;0.00;0.00;;;;;;;17.12;100.00;100618.88;5111489;28;20031;-44
2023/09/20 02:23:43;;;;;;;0.00;0.00;;;;;;;17.06;100.00;100609.75;5108481;28;20118;-43
2023/09/20 02:26:09;;;;;;;0.00;0.00;;;;;;;17.03;100.00;100615.63;5103940;28;20039;-41
2023/09/20 02:28:34;;;;;;;0.00;0.00;;;;;;;17.00;100.00;100601.69;5110709;28;20067;-43
2023/09/20 02:31:00;;;;;;;0.00;0.00;;;;;;;17.02;100.00;100607.72;5111719;28;20110;-42
2023/09/20 02:33:26;;;;;;;0.00;0.00;;;;;;;17.02;100.00;100596.84;5101057;28;20496;-42
2023/09/20 02:35:52;;;;;;;0.00;0.00;;;;;;;17.03;100.00;100599.31;5094443;28;20410;-42
2023/09/20 02:38:17;;;;;;;0.00;0.00;;;;;;;17.03;100.00;100593.06;5098526;28;20081;-44
2023/09/20 02:40:46;;;;;;;0.00;0.00;;;;;;;17.07;100.00;100610.59;5090722;28;20110;-44
2023/09/20 02:43:13;;;;;;;0.00;0.00;;;;;;;17.09;100.00;100590.25;5099072;28;20032;-44
2023/09/20 02:45:39;;;;;;;0.00;0.00;;;;;;;17.05;100.00;100591.75;5099171;28;20027;-43
2023/09/20 02:48:06;;;;;;;0.00;0.00;;;;;;;17.03;100.00;100582.19;5099444;28;20492;-41
2023/09/20 02:50:32;;;;;;;0.00;0.00;;;;;;;16.99;100.00;100581.00;5109083;28;20031;-42
2023/09/20 02:52:58;;;;;;;0.00;0.00;;;;;;;16.99;100.00;100581.81;5109124;28;20027;-40
2023/09/20 02:55:24;;;;;;;0.00;0.00;;;;;;;16.91;100.00;100568.56;5108362;28;20483;-41
2023/09/20 02:57:52;;;;;;;0.00;0.00;;;;;;;17.00;100.00;100571.78;5110503;28;20023;-42
2023/09/20 03:00:27;;;;;;;0.00;0.00;;;;;;;17.03;100.00;100577.56;5091177;28;20498;-44
2023/09/20 03:02:54;;;;;;;0.00;0.00;;;;;;;17.02;100.00;100570.47;5090797;28;20027;-43
2023/09/20 03:05:24;;;;;;;0.00;0.00;;;;;;;17.02;100.00;100572.38;5089860;28;20084;-41
2023/09/20 03:07:51;;;;;;;0.00;0.00;;;;;;;16.98;100.00;100573.88;5091164;28;20020;-42
2023/09/20 03:10:21;;;;;;;0.00;0.00;;;;;;;17.03;100.00;100571.31;5094137;28;20019;-44
2023/09/20 03:12:47;;;;;;;0.00;0.00;;;;;;;17.05;100.00;100563.75;5095110;28;20107;-44
2023/09/20 03:15:17;;;;;;;0.00;0.00;;;;;;;17.05;100.00;100558.31;5091230;28;20032;-42
2023/09/20 03:17:47;;;;;;;0.00;0.00;;;;;;;16.97;100.00;100547.78;5089974;28;20024;-44
2023/09/20 03:20:55;;;;;;;0.00;0.00;;;;;;;16.91;100.00;100548.72;5102871;28;20031;-43
2023/09/20 03:23:05;;;;;;;0.00;0.00;;;;;;;16.97;100.00;100551.31;5110505;28;20027;-43
2023/09/20 03:25:37;;;;;;;0.00;0.00;;;;;;;16.94;100.00;100540.09;5111355;28;20099;-42
2023/09/20 03:28:09;;;;;;;0.00;0.00;;;;;;;16.89;100.00;100546.22;5109691;28;20020;-44
2023/09/20 03:30:38;;;;;;;0.00;0.00;;;;;;;16.89;100.00;100548.94;5090917;28;20040;-41
2023/09/20 03:33:05;;;;;;;0.00;0.00;;;;;;;16.88;100.00;100536.41;5091088;28;20032;-46
2023/09/20 03:35:30;;;;;;;0.00;0.00;;;;;;;16.83;100.00;100545.25;5092038;28;20028;-44
2023/09/20 03:37:56;;;;;;;0.00;0.00;;;;;;;16.80;100.00;100537.56;5095676;28;20766;-39
2023/09/20 03:40:22;;;;;;;0.00;0.00;;;;;;;16.83;100.00;100539.81;5096311;28;20034;-42
2023/09/20 03:42:49;;;;;;;0.00;0.00;;;;;;;16.81;100.00;100528.34;5095379;28;20020;-41
2023/09/20 03:45:16;;;;;;;0.00;0.00;;;;;;;16.80;100.00;100532.13;5095347;28;20024;-41
2023/09/20 03:47:50;;;;;;;0.00;0.00;;;;;;;16.83;100.00;100537.09;5116279;27;20072;-43
2023/09/20 03:50:19;;;;;;;0.00;0.00;;;;;;;16.84;100.00;100527.03;5135746;27;20453;-43
2023/09/20 03:52:45;;;;;;;0.00;0.00;;;;;;;16.84;100.00;100533.31;5135369;27;20027;-43
2023/09/20 03:55:11;;;;;;;0.00;0.00;;;;;;;16.94;100.00;100523.78;5103697;28;20076;-43
2023/09/20 03:57:37;;;;;;;0.00;0.00;;;;;;;16.95;100.00;100514.53;5108110;28;20140;-43
2023/09/20 04:00:16;;;;;;;0.00;0.00;;;;;;;16.99;100.00;100515.75;5110960;28;20036;-42
2023/09/20 04:02:42;;;;;;;0.00;0.00;;;;;;;17.06;100.00;100521.91;5101108;28;20046;-45
2023/09/20 04:05:13;;;;;;;0.00;0.00;;;;;;;16.98;100.00;100524.94;5109274;28;20463;-41
2023/09/20 04:07:40;;;;;;;0.00;0.00;;;;;;;16.94;100.00;100512.91;5097554;28;20055;-41
2023/09/20 04:10:07;;;;;;;0.00;0.00;;;;;;;16.93;100.00;100506.66;5104467;28;20084;-42
2023/09/20 04:12:32;;;;;;;0.00;0.00;;;;;;;16.90;100.00;100507.06;5113184;28;20277;-44
2023/09/20 04:14:58;;;;;;;0.00;0.00;;;;;;;16.91;100.00;100514.19;5096814;28;20028;-42
2023/09/20 04:17:26;;;;;;;0.00;0.00;;;;;;;16.99;100.00;100510.31;5093543;28;20065;-41
2023/09/20 04:19:53;;;;;;;0.00;0.00;;;;;;;16.89;100.00;100505.44;5101904;28;20019;-43
2023/09/20 04:22:18;;;;;;;0.00;0.00;;;;;;;16.95;100.00;100509.09;5114151;28;20484;-44
2023/09/20 04:24:44;;;;;;;0.00;0.00;;;;;;;16.95;100.00;100500.97;5112254;28;20059;-42
2023/09/20 04:27:09;;;;;;;0.00;0.00;;;;;;;16.93;100.00;100495.78;5097053;28;20103;-41
2023/09/20 04:29:37;;;;;;;0.00;0.00;;;;;;;16.91;100.00;100486.19;5093243;28;20051;-44
2023/09/20 04:32:04;;;;;;;0.00;0.00;;;;;;;16.86;100.00;100495.84;5093052;28;20035;-42
2023/09/20 04:34:29;;;;;;;0.00;0.00;;;;;;;16.89;100.00;100492.66;5093787;28;20020;-44
2023/09/20 04:36:54;;;;;;;0.00;0.00;;;;;;;16.83;100.00;100485.44;5094266;28;20104;-40
2023/09/20 04:39:20;;;;;;;0.00;0.00;;;;;;;16.90;100.00;100477.19;5093789;28;20028;-43
2023/09/20 04:41:45;;;;;;;0.00;0.00;;;;;;;16.86;100.00;100486.88;5093695;28;20024;-41
2023/09/20 04:44:13;;;;;;;0.00;0.00;;;;;;;16.84;100.00;100475.41;5093528;28;20020;-41
2023/09/20 04:46:39;;;;;;;0.00;0.00;;;;;;;16.76;100.00;100483.84;5098063;28;20026;-43
2023/09/20 04:49:05;;;;;;;0.00;0.00;;;;;;;16.79;100.00;100476.09;5094485;28;20066;-45
2023/09/20 04:51:31;;;;;;;0.00;0.00;;;;;;;16.78;100.00;100476.34;5093234;28;20028;-44
2023/09/20 04:53:56;;;;;;;0.00;0.00;;;;;;;16.66;100.00;100473.53;5093331;28;20437;-45
2023/09/20 04:56:22;;;;;;;0.00;0.00;;;;;;;16.64;100.00;100481.09;5099142;28;20024;-44
2023/09/20 04:58:48;;;;;;;0.00;0.00;;;;;;;16.71;100.00;100489.97;5109405;28;20469;-44
2023/09/20 05:01:14;;;;;;;0.00;0.00;;;;;;;16.63;100.00;100487.59;5108657;28;20040;-42
2023/09/20 05:03:40;;;;;;;0.00;0.00;;;;;;;16.71;100.00;100489.97;5091173;28;20028;-43
2023/09/20 05:06:06;;;;;;;0.00;0.00;;;;;;;16.74;100.00;100484.06;5093006;28;20035;-42
2023/09/20 05:08:32;;;;;;;0.00;0.00;;;;;;;16.74;100.00;100475.91;5091837;28;20390;-42
2023/09/20 05:10:57;;;;;;;0.00;0.00;;;;;;;16.73;100.00;100484.31;5094452;28;20124;-42
2023/09/20 05:13:22;;;;;;;0.00;0.00;;;;;;;16.69;100.00;100467.63;5102808;28;20036;-43
2023/09/20 05:15:50;;;;;;;0.00;0.00;;;;;;;16.62;100.00;100472.34;5112938;28;20447;-43
2023/09/20 05:18:15;;;;;;;0.00;0.00;;;;;;;16.60;100.00;100486.16;5111723;28;20027;-42
2023/09/20 05:20:42;;;;;;;0.00;0.00;;;;;;;16.65;100.00;100478.16;5111401;28;20024;-41
2023/09/20 05:23:09;;;;;;;0.00;0.00;;;;;;;16.67;100.00;100481.47;5108714;28;20081;-43
2023/09/20 05:25:34;;;;;;;0.00;0.00;;;;;;;16.65;100.00;100482.75;5103011;28;20032;-45
2023/09/20 05:28:00;;;;;;;0.00;0.00;;;;;;;16.69;100.00;100483.94;5113220;28;20135;-43
2023/09/20 05:30:26;;;;;;;0.00;0.00;;;;;;;16.72;100.00;100480.78;5113347;28;20103;-43
2023/09/20 05:32:51;;;;;;;0.00;0.00;;;;;;;16.78;100.00;100490.75;5110805;28;20470;-42
2023/09/20 05:35:18;;;;;;;0.00;0.00;;;;;;;16.73;100.00;100473.47;5095896;28;20034;-43
2023/09/20 05:37:44;;;;;;;0.00;0.00;;;;;;;16.67;100.00;100480.66;5092512;28;20024;-43
2023/09/20 05:40:18;;;;;;;0.00;0.00;;;;;;;16.69;100.00;100483.94;5092453;28;20220;-44
2023/09/20 05:42:45;;;;;;;0.00;0.00;;;;;;;16.71;100.00;100478.28;5092741;28;20020;-44
2023/09/20 05:45:12;;;;;;;0.00;0.00;;;;;;;16.68;100.00;100477.69;5095302;28;20032;-44
2023/09/20 05:47:38;;;;;;;0.00;0.00;;;;;;;16.68;100.00;100477.69;5093660;28;20367;-43
2023/09/20 05:50:04;;;;;;;0.00;0.00;;;;;;;16.65;100.00;100483.59;5091455;28;20046;-44
2023/09/20 05:52:29;;;;;;;0.00;0.00;;;;;;;16.64;100.00;100473.78;5092131;28;20035;-42
2023/09/20 05:54:55;;;;;;;0.00;0.00;;;;;;;16.66;100.00;100478.97;5092113;28;20020;-45
2023/09/20 05:57:22;;;;;;;0.00;0.00;;;;;;;16.63;100.00;100476.72;5093848;28;20024;-43
2023/09/20 05:59:47;;;;;;;0.00;0.00;;;;;;;16.58;100.00;100476.59;5094341;28;20135;-43
2023/09/20 06:02:13;;;;;;;0.00;0.00;;;;;;;16.63;100.00;100484.88;5091775;28;20107;-41
2023/09/20 06:04:41;;;;;;;0.00;0.00;;;;;;;16.68;100.00;100466.00;5104509;28;20054;-44
2023/09/20 06:07:07;;;;;;;0.00;0.00;;;;;;;16.64;100.00;100468.34;5106726;28;20386;-43
2023/09/20 06:09:32;;;;;;;0.00;0.00;;;;;;;16.65;100.00;100477.31;5096479;28;20111;-41
2023/09/20 06:11:57;;;;;;;0.00;0.00;;;;;;;16.60;100.00;100474.47;5098288;28;20031;-43
2023/09/20 06:14:23;;;;;;;0.00;0.00;;;;;;;16.60;100.00;100477.19;5098133;28;20048;-43
2023/09/20 06:16:51;;;;;;;0.05;0.00;;;;;;;16.57;100.00;100469.50;5092443;28;20103;-43
2023/09/20 06:19:16;;;;;;;0.00;0.00;;;;;;;16.60;100.00;100469.03;5092818;28;20032;-40
2023/09/20 06:21:43;;;;;;;0.00;0.00;;;;;;;16.57;100.00;100470.31;5092609;28;20340;-44
2023/09/20 06:24:11;;;;;;;0.00;0.00;;;;;;;16.56;100.00;100463.25;5091998;28;20032;-42
2023/09/20 06:26:43;;;;;;;0.00;0.00;;;;;;;16.59;100.00;100451.09;5104108;28;20092;-43
2023/09/20 06:29:09;;;;;;;0.00;0.00;;;;;;;16.69;100.00;100467.63;5096568;28;20084;-46
2023/09/20 06:31:36;;;;;;;0.00;0.00;;;;;;;16.66;100.00;100468.09;5111227;28;20023;-43
2023/09/20 06:34:02;;;;;;;0.00;0.00;;;;;;;16.62;100.00;100462.31;5097995;28;20375;-46
2023/09/20 06:36:28;;;;;;;0.00;0.00;;;;;;;16.67;100.00;100475.22;5102055;28;20038;-41
2023/09/20 06:38:53;;;;;;;0.00;0.00;;;;;;;16.68;100.00;100474.13;5097548;28;20115;-44
2023/09/20 06:41:20;;;;;;;0.00;0.00;;;;;;;16.58;100.00;100460.28;5111508;28;20118;-43
2023/09/20 06:43:45;;;;;;;0.00;0.00;;;;;;;16.66;100.00;100462.66;5101844;28;20382;-43
2023/09/20 06:46:11;;;;;;;0.00;0.00;;;;;;;16.66;100.00;100460.78;5095192;28;20032;-44
2023/09/20 06:48:37;;;;;;;0.00;0.00;;;;;;;16.72;100.00;100450.91;5106689;28;20450;-41
2023/09/20 06:51:03;;;;;;;0.00;0.00;;;;;;;16.79;100.00;100473.38;5095386;28;20394;-42
2023/09/20 06:53:29;;;;;;;0.00;0.00;;;;;;;16.78;100.00;100465.47;5105158;28;20035;-43
2023/09/20 06:55:54;;;;;;;0.00;0.00;;;;;;;16.81;100.00;100468.53;5100271;28;20378;-42
2023/09/20 06:58:21;;;;;;;0.00;0.00;;;;;;;16.73;100.00;100481.59;5111405;28;20027;-43
2023/09/20 07:00:47;;;;;;;0.00;0.00;;;;;;;16.74;100.00;100475.91;5095716;28;20036;-42
2023/09/20 07:03:12;;;;;;;0.00;0.00;;;;;;;16.71;100.00;100481.81;5098989;28;20019;-44
2023/09/20 07:05:38;;;;;;;0.00;0.00;;;;;;;16.77;100.00;100475.50;5111665;28;20363;-42
2023/09/20 07:08:05;;;;;;;0.00;0.00;;;;;;;16.83;100.00;100465.59;5109786;28;20027;-43
2023/09/20 07:10:31;;;;;;;0.00;0.00;;;;;;;16.91;100.00;100467.16;5091779;28;20107;-43
2023/09/20 07:12:57;;;;;;;0.00;0.00;;;;;;;16.85;100.00;100467.03;5098245;28;20052;-43
2023/09/20 07:15:25;;;;;;;0.00;0.00;;;;;;;16.86;100.00;100471.38;5110368;28;20031;-42
2023/09/20 07:18:01;;;;;;;0.00;0.00;;;;;;;16.87;100.00;100470.31;5098226;28;20020;-43
2023/09/20 07:20:31;;;;;;;0.00;0.00;;;;;;;16.77;100.00;100480.94;5091712;28;20491;-43
2023/09/20 07:22:58;;;;;;;0.00;0.00;;;;;;;16.80;100.00;100491.34;5111774;28;20024;-42
2023/09/20 07:25:27;;;;;;;0.00;0.00;;;;;;;16.78;100.00;100493.47;5111520;28;20031;-44
2023/09/20 07:27:55;;;;;;;0.00;0.00;;;;;;;16.77;100.00;100502.69;5116592;28;20023;-46
2023/09/20 07:30:22;;;;;;;0.00;0.00;;;;;;;16.73;100.00;100498.72;5105758;27;20082;-42
2023/09/20 07:32:50;;;;;;;0.00;0.00;;;;;;;16.75;100.00;100496.63;5100257;28;20544;-42
2023/09/20 07:35:36;;;;;;;0.00;0.00;;;;;;;16.82;100.00;100500.09;5131790;27;20015;-45
2023/09/20 07:38:03;;;;;;;0.00;0.00;;;;;;;16.79;100.00;100505.97;5122804;27;20365;-43
2023/09/20 07:40:30;;;;;;;0.00;0.00;;;;;;;16.80;100.00;100502.22;5096147;28;20565;-42
2023/09/20 07:43:07;;;;;;;0.00;0.00;;;;;;;16.88;100.00;100506.50;5095375;28;20370;-43
2023/09/20 07:45:38;;;;;;;0.00;0.00;;;;;;;16.85;100.00;100499.66;5097314;28;20063;-41
2023/09/20 07:48:17;;;;;;;0.00;0.00;;;;;;;16.85;100.00;100505.06;5096450;28;20615;-41
2023/09/20 07:50:51;;;;;;;0.00;0.00;;;;;;;16.93;100.00;100500.34;5095662;28;20050;-41
2023/09/20 07:53:20;;;;;;;0.00;0.00;;;;;;;16.97;100.00;100507.81;5097854;28;20501;-46
2023/09/20 07:56:11;;;;;;;0.00;0.00;;;;;;;16.92;100.00;100513.13;5110208;28;20034;-41
2023/09/20 07:58:36;;;;;;;0.00;0.00;;;;;;;16.83;100.00;100515.34;5101626;28;20036;-42
2023/09/20 08:01:16;;;;;;;0.00;0.00;;;;;;;16.92;100.00;100517.72;5092388;28;20057;-42
2023/09/20 08:03:50;;;;;;;0.00;0.00;;;;;;;17.01;100.00;100502.72;5102139;28;20042;-42
2023/09/20 08:06:17;;;;;;;0.00;0.00;;;;;;;17.06;100.00;100511.03;5106953;28;20032;-43
2023/09/20 08:08:42;;;;;;;0.00;0.00;;;;;;;17.01;100.00;100508.16;5100035;28;20087;-43
2023/09/20 08:11:08;;;;;;;0.00;0.00;;;;;;;17.00;100.00;100506.53;5109869;28;20019;-42
2023/09/20 08:13:33;;;;;;;0.00;0.00;;;;;;;16.89;100.00;100510.88;5099612;28;20059;-42
2023/09/20 08:16:00;;;;;;;0.00;0.00;;;;;;;16.92;100.00;100518.56;5101680;28;20030;-40
2023/09/20 08:21:09;;;;;;;0.00;0.00;;;;;;;16.99;100.00;100513.03;5091020;28;20043;-43
2023/09/20 09:02:07;;;;;;;0.00;0.00;;;;;;;16.98;100.00;100509.50;5113574;28;20542;-44
2023/09/20 09:04:32;;;;;;;0.00;0.00;;;;;;;16.89;100.00;100505.44;5108017;28;20047;-40
2023/09/20 09:06:58;;;;;;;0.00;0.00;;;;;;;16.89;100.00;100511.69;5103143;28;20148;-44
2023/09/20 09:09:23;;;;;;;0.00;0.00;;;;;;;16.94;100.00;100510.19;5104708;28;20030;-44
2023/09/20 09:11:48;;;;;;;0.00;0.00;;;;;;;17.04;100.00;100514.00;5112205;28;20111;-48
2023/09/20 09:14:14;;;;;;;0.00;0.00;;;;;;;17.10;100.00;100521.22;5096507;28;20052;-41
2023/09/20 09:16:39;;;;;;;0.00;0.00;;;;;;;17.08;100.00;100508.91;5092107;28;20543;-44
2023/09/20 09:19:07;;;;;;;0.00;0.00;;;;;;;17.08;100.00;100498.84;5106849;27;20384;-45
2023/09/20 09:21:34;;;;;;;0.00;0.00;;;;;;;17.18;100.00;100502.91;5113575;28;20077;-43
2023/09/20 09:23:59;;;;;;;0.00;0.00;;;;;;;17.14;100.00;100505.28;5113245;28;20061;-45
2023/09/20 09:26:25;;;;;;;0.00;0.00;;;;;;;17.28;100.00;100503.97;5098677;28;20055;-43
2023/09/20 09:28:51;;;;;;;0.00;0.00;;;;;;;17.30;100.00;100504.59;5096277;28;20032;-43
2023/09/20 09:31:16;;;;;;;0.00;0.00;;;;;;;17.28;100.00;100500.44;5107981;27;20076;-43
2023/09/20 09:33:42;;;;;;;0.00;0.00;;;;;;;17.32;100.00;100499.75;5111239;28;20458;-41
2023/09/20 09:36:08;;;;;;;0.00;0.00;;;;;;;17.50;100.00;100489.81;5100024;28;20035;-43
2023/09/20 09:38:34;;;;;;;0.00;0.00;;;;;;;17.50;100.00;100498.78;5095775;28;20339;-45
2023/09/20 09:41:01;;;;;;;0.00;0.00;;;;;;;17.51;100.00;100491.47;5107334;28;20055;-43
2023/09/20 09:43:28;;;;;;;0.00;0.00;;;;;;;17.55;100.00;100481.75;5100167;28;20024;-44
2023/09/20 09:45:54;;;;;;;0.00;0.00;;;;;;;17.68;100.00;100476.06;5092259;28;20525;-46
2023/09/20 09:48:20;;;;;;;0.00;0.00;;;;;;;17.66;100.00;100480.91;5104841;28;20362;-45
2023/09/20 09:50:46;;;;;;;0.00;0.00;;;;;;;17.60;100.00;100475.63;5096507;28;20036;-43
2023/09/20 09:53:15;;;;;;;0.00;0.00;;;;;;;17.54;100.00;100469.22;5097312;27;20032;-42
2023/09/20 09:55:41;;;;;;;0.00;0.00;;;;;;;17.53;100.00;100462.94;5097417;28;20352;-47
2023/09/20 09:58:09;;;;;;;0.00;0.00;;;;;;;17.65;100.00;100464.84;5104859;28;20080;-41
2023/09/20 10:00:37;;;;;;;0.00;0.00;;;;;;;17.67;100.00;100471.72;5096987;28;20044;-45
2023/09/20 10:03:18;;;;;;;0.00;0.00;;;;;;;17.71;100.00;100440.22;5097032;28;20474;-45
2023/09/20 10:05:46;;;;;;;0.00;0.00;;;;;;;17.75;100.00;100433.22;5091871;28;20047;-43
2023/09/20 10:08:13;;;;;;;0.10;0.00;;;;;;;17.74;100.00;100447.88;5092596;28;20047;-43
2023/09/20 10:10:38;;;;;;;0.00;0.00;;;;;;;17.65;100.00;100449.34;5090757;28;20020;-44
2023/09/20 10:13:04;;;;;;;0.00;0.00;;;;;;;17.59;100.00;100444.84;5091783;28;20089;-44
2023/09/20 10:15:32;;;;;;;0.00;0.00;;;;;;;17.74;100.00;100434.28;5090512;28;20474;-44
2023/09/20 10:17:59;;;;;;;0.00;0.00;;;;;;;17.73;100.00;100442.72;5091557;28;20540;-42
2023/09/20 10:20:54;;;;;;;0.00;0.00;;;;;;;17.67;100.00;100447.22;5110521;28;20023;-44
2023/09/20 10:23:22;;;;;;;0.00;0.00;;;;;;;17.84;100.00;100451.94;5111385;28;20024;-43
2023/09/20 10:25:48;;;;;;;;;;;;;;;17.85;100.00;100434.53;5112311;28;20147;-44
2023/09/20 10:28:16;;;;;;;0.00;0.00;;;;;;;17.85;100.00;100450.88;5111348;28;20449;-43
2023/09/20 10:31:01;;;;;;;0.00;0.00;;;;;;;17.92;100.00;100437.97;5100905;28;20032;-43
2023/09/20 10:33:54;;;;;;;0.00;0.00;;;;;;;17.89;100.00;100439.28;5104942;28;20043;-44
2023/09/20 10:36:23;;;;;;;0.00;0.00;;;;;;;17.97;100.00;100440.78;5091228;28;20031;-44
2023/09/20 10:38:48;;;;;;;0.00;0.00;;;;;;;18.03;100.00;100426.19;5091461;28;20028;-42
2023/09/20 10:41:15;;;;;;;0.00;0.00;;;;;;;18.17;100.00;100433.03;5090385;28;20157;-45
2023/09/20 10:43:42;;;;;;;0.00;0.00;;;;;;;18.27;100.00;100429.66;5108600;28;20035;-47
2023/09/20 10:46:14;;;;;;;0.00;0.00;;;;;;;18.31;100.00;100419.94;5107857;28;21155;-45
2023/09/20 10:48:48;;;;;;;0.00;0.00;;;;;;;18.25;100.00;100415.50;5091041;28;20028;-45
2023/09/20 10:51:37;;;;;;;0.00;0.00;;;;;;;18.18;100.00;100426.50;5090938;28;20028;-44
2023/09/20 10:54:17;;;;;;;0.00;0.00;;;;;;;18.10;100.00;100417.91;5090461;28;20024;-43
2023/09/20 10:56:50;;;;;;;0.00;0.00;;;;;;;18.18;100.00;100431.13;5092641;28;20019;-42
2023/09/20 10:59:16;;;;;;;0.00;0.00;;;;;;;18.13;100.00;100411.97;5098212;28;20061;-43
2023/09/20 11:01:56;;;;;;;0.00;0.00;;;;;;;18.20;100.00;100427.09;5089238;28;20100;-43
2023/09/20 11:04:23;;;;;;;0.00;0.00;;;;;;;18.29;100.00;100427.53;5088816;28;20043;-44
2023/09/20 11:06:49;;;;;;;0.00;0.00;;;;;;;18.33;100.00;100433.34;5087252;28;20111;-41
2023/09/20 11:09:15;;;;;;;0.00;0.00;;;;;;;18.35;100.00;100423.00;5087165;28;20035;-42
2023/09/20 11:11:42;;;;;;;0.00;0.00;;;;;;;18.40;100.00;100425.81;5090776;28;20040;-43
2023/09/20 11:14:08;;;;;;;0.00;0.00;;;;;;;18.35;100.00;100429.31;5090553;28;20138;-43
2023/09/20 11:16:33;;;;;;;0.00;0.00;;;;;;;18.40;100.00;100420.38;5094958;28;20285;-45
2023/09/20 11:18:59;;;;;;;0.00;0.00;;;;;;;18.53;100.00;100406.44;5106708;28;20027;-43
2023/09/20 11:21:24;;;;;;;0.00;0.00;;;;;;;18.70;100.00;100406.50;5090254;28;20039;-43
2023/09/20 11:23:51;;;;;;;0.00;0.00;;;;;;;19.07;100.00;100400.56;5094941;28;20055;-44
2023/09/20 11:26:26;;;;;;;0.00;0.00;;;;;;;19.35;100.00;100398.78;5086232;28;20031;-45
2023/09/20 11:28:52;;;;;;;0.00;0.00;;;;;;;19.30;100.00;100402.31;5093629;28;20036;-44
2023/09/20 11:31:28;;;;;;;0.00;0.00;;;;;;;19.34;100.00;100410.78;5103923;28;20030;-43
2023/09/20 11:34:00;;;;;;;0.00;0.00;;;;;;;19.48;100.00;100396.56;5106912;28;20048;-45
2023/09/20 11:36:38;;;;;;;0.00;0.00;;;;;;;19.73;100.00;100381.63;5088537;28;20030;-43
2023/09/20 11:39:05;;;;;;;;;;;;;;;19.77;100.00;100377.28;5094598;28;20040;-44
2023/09/20 11:41:32;;;;;;;0.00;0.00;;;;;;;19.63;100.00;100368.63;5106495;28;19916;-44
2023/09/20 11:43:57;;;;;;;0.00;0.00;;;;;;;19.59;100.00;100374.81;5106711;28;20028;-43
2023/09/20 11:46:27;;;;;;;0.00;0.00;;;;;;;19.67;100.00;100371.72;5108728;28;20124;-45
2023/09/20 11:48:57;;;;;;;0.00;0.00;;;;;;;19.64;100.00;100389.41;5095027;28;20030;-43
2023/09/20 11:51:22;;;;;;;0.00;0.00;;;;;;;19.50;100.00;100369.81;5094027;28;20042;-43
2023/09/20 11:53:48;;;;;;;0.00;0.00;;;;;;;19.39;100.00;100368.03;5129120;27;20019;-45
2023/09/20 11:56:14;;;;;;;0.00;0.00;;;;;;;19.42;100.00;100383.91;5113915;27;20031;-43
2023/09/20 11:58:39;;;;;;;0.00;0.00;;;;;;;19.42;100.00;100364.78;5105292;28;20110;-43
2023/09/20 12:01:08;;;;;;;0.00;0.00;;;;;;;19.42;100.00;100359.34;5092137;28;20048;-43